createdAt,value
2018-01-13T00:00:00.162Z,130.18
2018-01-13T00:02:29.080Z,142.24
2018-01-13T00:04:58.621Z,135.50
2018-01-13T00:07:26.883Z,152.12
2018-01-13T00:09:55.192Z,138.10
2018-01-13T00:12:23.443Z,127.04
2018-01-13T00:14:50.972Z,141.20
2018-01-13T00:17:19.248Z,123.50
2018-01-13T00:19:47.526Z,159.24
2018-01-13T00:22:15.781Z,126.50
2018-01-13T00:24:54.485Z,131.18
2018-01-13T00:27:22.737Z,146.08
2018-01-13T00:29:50.998Z,133.76
2018-01-13T00:32:19.277Z,124.32
2018-01-13T00:34:47.525Z,128.40
2018-01-13T00:37:15.809Z,117.90
2018-01-13T00:39:51.128Z,131.46
2018-01-13T00:42:19.438Z,123.94
2018-01-13T00:44:47.689Z,116.18
2018-01-13T00:47:17.936Z,120.64
2018-01-13T00:49:46.185Z,119.62
2018-01-13T00:52:13.688Z,122.98
2018-01-13T00:54:41.969Z,124.44
2018-01-13T00:57:10.237Z,133.90
2018-01-13T00:59:38.518Z,100.54
2018-01-13T01:02:06.894Z,116.86
2018-01-13T01:04:35.141Z,123.26
2018-01-13T01:07:03.394Z,113.76
2018-01-13T01:09:31.670Z,125.32
2018-01-13T01:12:01.082Z,108.10
2018-01-13T01:14:30.049Z,117.98
2018-01-13T01:16:58.952Z,121.08
2018-01-13T01:19:27.208Z,110.30
2018-01-13T01:21:55.694Z,123.76
2018-01-13T01:24:23.944Z,117.24
2018-01-13T01:26:59.828Z,138.22
2018-01-13T01:29:28.889Z,118.40
2018-01-13T01:31:57.137Z,118.50
2018-01-13T01:34:25.437Z,111.46
2018-01-13T01:36:53.702Z,110.96
2018-01-13T01:39:22.986Z,105.10
2018-01-13T01:41:51.252Z,120.38
2018-01-13T01:44:19.534Z,111.84
2018-01-13T01:46:47.802Z,114.48
2018-01-13T01:49:17.037Z,110.14
2018-01-13T01:51:45.321Z,109.82
2018-01-13T01:54:13.593Z,96.34
2018-01-13T01:56:41.838Z,97.48
2018-01-13T01:59:26.914Z,108.76
2018-01-13T02:01:55.166Z,109.24
2018-01-13T02:04:23.476Z,120.98
2018-01-13T02:06:51.744Z,122.60
2018-01-13T02:09:20.938Z,116.64
2018-01-13T02:11:49.233Z,88.34
2018-01-13T02:14:17.486Z,101.98
2018-01-13T02:16:45.734Z,93.06
2018-01-13T02:19:24.218Z,107.60
2018-01-13T02:21:52.466Z,97.48
2018-01-13T02:24:20.754Z,101.86
2018-01-13T02:26:49.010Z,114.10
2018-01-13T02:29:17.292Z,99.26
2018-01-13T02:31:45.541Z,109.40
2018-01-13T02:34:13.836Z,112.26
2018-01-13T02:36:45.218Z,102.66
2018-01-13T02:39:13.514Z,103.08
2018-01-13T02:41:41.760Z,93.54
2018-01-13T02:44:10.982Z,101.66
2018-01-13T02:46:39.270Z,114.76
2018-01-13T02:49:07.549Z,124.62
2018-01-13T02:51:35.821Z,133.20
2018-01-13T02:54:07.235Z,120.10
2018-01-13T02:56:35.491Z,102.10
2018-01-13T02:59:03.795Z,115.70
2018-01-13T03:01:31.290Z,128.86
2018-01-13T03:03:59.967Z,118.54
2018-01-13T03:06:29.410Z,127.96
2018-01-13T03:08:58.067Z,135.88
2018-01-13T03:11:26.363Z,121.48
2018-01-13T03:13:54.621Z,101.38
2018-01-13T03:16:22.918Z,123.16
2018-01-13T03:18:51.170Z,107.30
2018-01-13T03:21:19.435Z,109.74
2018-01-13T03:23:47.725Z,109.96
2018-01-13T03:26:15.987Z,113.90
2018-01-13T03:28:44.265Z,99.28
2018-01-13T03:31:12.528Z,103.26
2018-01-13T03:33:40.806Z,124.00
2018-01-13T03:36:09.086Z,130.42
2018-01-13T03:38:37.346Z,105.30
2018-01-13T03:41:05.642Z,117.82
2018-01-13T03:43:33.904Z,102.90
2018-01-13T03:46:02.186Z,107.88
2018-01-13T03:48:30.442Z,110.76
2018-01-13T03:50:59.506Z,110.56
2018-01-13T03:53:28.479Z,115.80
2018-01-13T03:56:03.883Z,100.42
2018-01-13T03:58:32.139Z,124.64
2018-01-13T04:01:00.406Z,108.68
2018-01-13T04:03:29.054Z,119.10
2018-01-13T04:05:58.243Z,105.70
2018-01-13T04:08:26.502Z,121.20
2018-01-13T04:10:54.753Z,104.12
2018-01-13T04:13:23.055Z,101.68
2018-01-13T04:15:51.318Z,91.88
2018-01-13T04:18:19.570Z,98.58
2018-01-13T04:20:47.950Z,106.06
2018-01-13T04:23:21.965Z,119.92
2018-01-13T04:25:50.247Z,99.56
2018-01-13T04:28:18.507Z,100.06
2018-01-13T04:30:46.786Z,109.86
2018-01-13T04:33:15.070Z,107.92
2018-01-13T04:35:43.330Z,109.80
2018-01-13T04:38:11.626Z,110.44
2018-01-13T04:40:39.885Z,115.82
2018-01-13T04:43:09.166Z,100.78
2018-01-13T04:45:37.427Z,94.60
2018-01-13T04:48:05.686Z,111.48
2018-01-13T04:50:33.979Z,126.08
2018-01-13T04:53:02.237Z,113.12
2018-01-13T04:55:30.526Z,110.70
2018-01-13T04:57:59.602Z,127.28
2018-01-13T05:00:28.590Z,116.30
2018-01-13T05:02:56.871Z,122.78
2018-01-13T05:05:25.158Z,106.92
2018-01-13T05:07:53.414Z,110.18
2018-01-13T05:10:21.698Z,103.30
2018-01-13T05:12:49.987Z,110.16
2018-01-13T05:15:18.246Z,125.20
2018-01-13T05:17:46.511Z,109.18
2018-01-13T05:20:14.801Z,103.82
2018-01-13T05:22:43.067Z,100.46
2018-01-13T05:25:11.335Z,117.76
2018-01-13T05:27:39.630Z,102.42
2018-01-13T05:30:07.890Z,101.14
2018-01-13T05:32:36.147Z,93.50
2018-01-13T05:35:04.422Z,97.74
2018-01-13T05:37:32.722Z,103.26
2018-01-13T05:40:00.987Z,115.00
2018-01-13T05:42:29.970Z,111.28
2018-01-13T05:44:58.859Z,99.78
2018-01-13T05:47:27.118Z,93.82
2018-01-13T05:49:55.402Z,102.52
2018-01-13T05:52:23.653Z,100.84
2018-01-13T05:55:05.794Z,95.32
2018-01-13T05:57:34.050Z,106.86
2018-01-13T06:00:02.354Z,106.86
2018-01-13T06:02:29.846Z,88.10
2018-01-13T06:04:58.841Z,89.06
2018-01-13T06:07:27.122Z,84.04
2018-01-13T06:09:55.382Z,95.92
2018-01-13T06:12:23.671Z,83.42
2018-01-13T06:14:52.862Z,88.80
2018-01-13T06:17:21.154Z,88.26
2018-01-13T06:19:49.405Z,95.72
2018-01-13T06:22:17.671Z,102.42
2018-01-13T06:24:51.760Z,92.88
2018-01-13T06:27:20.386Z,91.42
2018-01-13T06:29:48.646Z,105.62
2018-01-13T06:32:16.926Z,93.86
2018-01-13T06:34:45.178Z,86.70
2018-01-13T06:37:13.466Z,98.96
2018-01-13T06:39:41.717Z,90.70
2018-01-13T06:42:10.018Z,85.60
2018-01-13T06:44:38.270Z,95.90
2018-01-13T06:47:06.527Z,99.46
2018-01-13T06:49:34.811Z,90.28
2018-01-13T06:52:03.072Z,102.36
2018-01-13T06:54:31.354Z,78.42
2018-01-13T06:57:00.094Z,108.86
2018-01-13T06:59:29.051Z,100.36
2018-01-13T07:01:58.134Z,94.28
2018-01-13T07:04:26.383Z,96.36
2018-01-13T07:06:54.682Z,95.60
2018-01-13T07:09:22.935Z,92.44
2018-01-13T07:11:51.187Z,85.80
2018-01-13T07:14:19.470Z,85.28
2018-01-13T07:16:46.990Z,95.18
2018-01-13T07:19:15.242Z,93.80
2018-01-13T07:21:43.534Z,77.22
2018-01-13T07:24:11.793Z,89.16
2018-01-13T07:26:42.734Z,77.88
2018-01-13T07:29:10.982Z,88.86
2018-01-13T07:31:39.226Z,95.02
2018-01-13T07:34:07.517Z,88.82
2018-01-13T07:36:35.774Z,84.20
2018-01-13T07:39:07.681Z,88.06
2018-01-13T07:41:35.988Z,84.04
2018-01-13T07:44:10.590Z,90.02
2018-01-13T07:46:38.873Z,74.46
2018-01-13T07:49:07.129Z,82.22
2018-01-13T07:51:35.414Z,75.64
2018-01-13T07:54:03.674Z,77.26
2018-01-13T07:56:32.945Z,82.08
2018-01-13T07:59:01.194Z,71.04
2018-01-13T08:01:30.159Z,74.80
2018-01-13T08:03:58.084Z,66.52
2018-01-13T08:06:26.344Z,75.80
2018-01-13T08:08:54.607Z,76.52
2018-01-13T08:11:22.987Z,61.26
2018-01-13T08:13:51.271Z,67.96
2018-01-13T08:16:19.522Z,74.20
2018-01-13T08:18:47.813Z,70.96
2018-01-13T08:21:16.062Z,75.72
2018-01-13T08:23:44.366Z,68.28
2018-01-13T08:26:12.622Z,69.52
2018-01-13T08:28:40.872Z,61.10
2018-01-13T08:31:09.147Z,73.80
2018-01-13T08:33:37.397Z,63.10
2018-01-13T08:36:05.686Z,67.44
2018-01-13T08:38:33.939Z,68.46
2018-01-13T08:41:02.195Z,70.50
2018-01-13T08:43:30.479Z,62.04
2018-01-13T08:45:59.350Z,67.46
2018-01-13T08:48:28.044Z,58.06
2018-01-13T08:50:56.295Z,61.00
2018-01-13T08:53:24.542Z,57.00
2018-01-13T08:55:52.826Z,51.96
2018-01-13T08:58:21.074Z,53.80
2018-01-13T09:00:49.369Z,53.98
2018-01-13T09:03:17.630Z,59.58
2018-01-13T09:05:45.883Z,53.96
2018-01-13T09:08:14.175Z,49.04
2018-01-13T09:10:42.445Z,48.12
2018-01-13T09:13:10.703Z,52.64
2018-01-13T09:15:38.978Z,47.26
2018-01-13T09:18:07.263Z,43.32
2018-01-13T09:20:34.778Z,44.76
2018-01-13T09:23:03.054Z,46.14
2018-01-13T09:25:31.302Z,43.26
2018-01-13T09:27:59.902Z,35.20
2018-01-13T09:30:29.062Z,33.46
2018-01-13T09:32:59.026Z,37.30
2018-01-13T09:35:28.483Z,34.94
2018-01-13T09:37:56.779Z,39.06
2018-01-13T09:40:25.037Z,31.82
2018-01-13T09:42:53.299Z,39.96
2018-01-13T09:45:21.601Z,35.54
2018-01-13T09:47:49.886Z,35.56
2018-01-13T09:50:18.146Z,34.12
2018-01-13T09:52:46.430Z,36.86
2018-01-13T09:55:14.686Z,31.18
2018-01-13T09:57:42.970Z,38.84
2018-01-13T10:00:11.222Z,40.20
2018-01-13T10:02:39.514Z,37.82
2018-01-13T10:05:07.767Z,39.44
2018-01-13T10:07:36.034Z,39.14
2018-01-13T10:10:04.325Z,35.54
2018-01-13T10:12:32.648Z,37.26
2018-01-13T10:15:00.931Z,34.20
2018-01-13T10:17:29.904Z,34.26
2018-01-13T10:19:58.870Z,38.06
2018-01-13T10:22:27.130Z,31.42
2018-01-13T10:24:55.378Z,31.40
2018-01-13T10:27:23.662Z,37.48
2018-01-13T10:29:51.940Z,31.16
2018-01-13T10:32:32.992Z,38.28
2018-01-13T10:35:01.262Z,31.30
2018-01-13T10:37:35.419Z,34.84
2018-01-13T10:40:03.711Z,36.00
2018-01-13T10:42:38.163Z,31.14
2018-01-13T10:45:06.446Z,34.14
2018-01-13T10:47:34.739Z,38.76
2018-01-13T10:50:02.986Z,37.98
2018-01-13T10:52:31.246Z,38.30
2018-01-13T10:54:59.745Z,29.40
2018-01-13T10:57:29.098Z,32.72
2018-01-13T10:59:58.074Z,24.68
2018-01-13T11:02:26.358Z,24.14
2018-01-13T11:04:54.621Z,30.42
2018-01-13T11:07:22.914Z,26.50
2018-01-13T11:09:51.166Z,25.84
2018-01-13T11:12:19.423Z,31.58
2018-01-13T11:14:47.718Z,29.02
2018-01-13T11:17:15.982Z,25.34
2018-01-13T11:19:50.047Z,26.00
2018-01-13T11:22:18.298Z,34.12
2018-01-13T11:24:46.558Z,28.86
2018-01-13T11:27:14.869Z,21.68
2018-01-13T11:29:43.159Z,25.12
2018-01-13T11:32:10.646Z,25.48
2018-01-13T11:34:38.907Z,22.10
2018-01-13T11:37:07.189Z,26.98
2018-01-13T11:39:35.454Z,31.46
2018-01-13T11:42:02.971Z,29.24
2018-01-13T11:44:31.239Z,22.94
2018-01-13T11:47:00.447Z,20.28
2018-01-13T11:49:29.430Z,25.00
2018-01-13T11:51:58.501Z,26.40
2018-01-13T11:54:30.245Z,25.94
2018-01-13T11:56:58.911Z,20.30
2018-01-13T11:59:27.170Z,15.76
2018-01-13T12:01:55.454Z,22.26
2018-01-13T12:04:23.706Z,19.38
2018-01-13T12:06:58.826Z,15.64
2018-01-13T12:09:27.083Z,14.88
2018-01-13T12:11:55.343Z,18.88
2018-01-13T12:14:23.634Z,18.60
2018-01-13T12:16:51.890Z,16.82
2018-01-13T12:19:23.139Z,19.54
2018-01-13T12:21:51.402Z,17.18
2018-01-13T12:24:19.694Z,18.40
2018-01-13T12:26:47.178Z,15.68
2018-01-13T12:29:15.435Z,18.66
2018-01-13T12:31:43.722Z,19.56
2018-01-13T12:34:14.630Z,18.88
2018-01-13T12:36:42.915Z,17.04
2018-01-13T12:39:11.204Z,15.54
2018-01-13T12:41:39.449Z,17.74
2018-01-13T12:44:07.735Z,16.24
2018-01-13T12:46:42.111Z,16.24
2018-01-13T12:49:10.397Z,19.14
2018-01-13T12:51:38.659Z,23.04
2018-01-13T12:54:06.946Z,18.04
2018-01-13T12:56:35.203Z,21.18
2018-01-13T12:59:03.487Z,15.98
2018-01-13T13:01:31.774Z,17.04
2018-01-13T13:04:01.206Z,18.04
2018-01-13T13:06:30.210Z,17.04
2018-01-13T13:08:58.894Z,17.34
2018-01-13T13:11:28.988Z,17.48
2018-01-13T13:13:58.385Z,19.54
2018-01-13T13:16:26.666Z,19.04
2018-01-13T13:18:54.951Z,18.62
2018-01-13T13:21:23.202Z,18.58
2018-01-13T13:23:51.506Z,19.98
2018-01-13T13:26:19.802Z,17.94
2018-01-13T13:28:54.783Z,16.70
2018-01-13T13:31:23.034Z,18.10
2018-01-13T13:33:51.295Z,17.58
2018-01-13T13:36:19.583Z,17.54
2018-01-13T13:38:58.859Z,18.32
2018-01-13T13:41:27.111Z,15.66
2018-01-13T13:43:55.394Z,15.34
2018-01-13T13:46:23.676Z,20.24
2018-01-13T13:48:51.962Z,16.32
2018-01-13T13:51:26.178Z,13.14
2018-01-13T13:53:54.467Z,15.72
2018-01-13T13:56:22.719Z,19.30
2018-01-13T13:58:51.030Z,17.22
2018-01-13T14:01:28.592Z,15.48
2018-01-13T14:03:46.834Z,17.22
2018-01-13T14:06:15.082Z,16.90
2018-01-13T14:08:43.330Z,20.74
2018-01-13T14:11:11.614Z,16.82
2018-01-13T14:13:39.866Z,17.54
2018-01-13T14:16:07.388Z,16.52
2018-01-13T14:18:35.639Z,15.24
2018-01-13T14:21:07.438Z,13.80
2018-01-13T14:23:35.727Z,20.34
2018-01-13T14:26:14.405Z,15.08
2018-01-13T14:28:42.658Z,17.12
2018-01-13T14:31:10.906Z,20.70
2018-01-13T14:33:39.209Z,19.06
2018-01-13T14:36:07.458Z,16.98
2018-01-13T14:38:35.709Z,15.36
2018-01-13T14:41:13.787Z,13.12
2018-01-13T14:43:42.046Z,20.76
2018-01-13T14:46:09.575Z,19.40
2018-01-13T14:48:37.836Z,21.04
2018-01-13T14:51:06.123Z,16.94
2018-01-13T14:53:34.398Z,14.90
2018-01-13T14:56:02.662Z,19.16
2018-01-13T14:58:30.938Z,16.28
2018-01-13T15:00:59.806Z,19.28
2018-01-13T15:03:28.934Z,18.02
2018-01-13T15:05:57.189Z,18.48
2018-01-13T15:08:25.471Z,25.10
2018-01-13T15:10:53.719Z,16.60
2018-01-13T15:13:22.020Z,20.80
2018-01-13T15:15:50.283Z,19.96
2018-01-13T15:18:18.536Z,14.72
2018-01-13T15:20:46.847Z,18.64
2018-01-13T15:23:15.098Z,19.72
2018-01-13T15:25:43.359Z,17.04
2018-01-13T15:28:11.638Z,15.16
2018-01-13T15:30:39.972Z,15.32
2018-01-13T15:33:08.207Z,17.66
2018-01-13T15:35:36.455Z,16.62
2018-01-13T15:38:04.737Z,20.20
2018-01-13T15:40:32.986Z,16.58
2018-01-13T15:43:01.278Z,21.52
2018-01-13T15:45:29.930Z,17.54
2018-01-13T15:47:59.354Z,20.26
2018-01-13T15:50:31.056Z,22.04
2018-01-13T15:53:00.205Z,17.66
2018-01-13T15:55:29.453Z,20.76
2018-01-13T15:57:57.770Z,23.52
2018-01-13T16:00:26.053Z,14.88
2018-01-13T16:02:54.310Z,18.54
2018-01-13T16:05:22.600Z,19.20
2018-01-13T16:07:54.120Z,15.52
2018-01-13T16:10:22.415Z,16.40
2018-01-13T16:13:01.887Z,15.96
2018-01-13T16:15:30.185Z,15.94
2018-01-13T16:17:58.911Z,18.92
2018-01-13T16:20:27.162Z,20.80
2018-01-13T16:23:02.082Z,17.72
2018-01-13T16:25:30.216Z,18.84
2018-01-13T16:27:59.054Z,24.58
2018-01-13T16:30:28.310Z,20.22
2018-01-13T16:32:56.574Z,19.80
2018-01-13T16:35:24.838Z,20.98
2018-01-13T16:37:53.141Z,20.74
2018-01-13T16:40:45.005Z,25.90
2018-01-13T16:43:13.294Z,22.86
2018-01-13T16:45:43.514Z,22.32
2018-01-13T16:48:11.788Z,26.16
2018-01-13T16:50:40.074Z,19.98
2018-01-13T16:53:14.032Z,20.02
2018-01-13T16:55:42.289Z,20.44
2018-01-13T16:58:11.543Z,23.00
2018-01-13T17:00:39.837Z,19.64
2018-01-13T17:03:08.106Z,16.76
2018-01-13T17:05:36.395Z,23.30
2018-01-13T17:08:05.662Z,19.20
2018-01-13T17:10:33.990Z,16.18
2018-01-13T17:13:11.511Z,17.28
2018-01-13T17:15:39.798Z,18.42
2018-01-13T17:18:08.132Z,17.86
2018-01-13T17:20:36.432Z,19.72
2018-01-13T17:23:05.670Z,18.58
2018-01-13T17:25:34.004Z,19.80
2018-01-13T17:28:03.281Z,18.90
2018-01-13T17:30:31.579Z,18.58
2018-01-13T17:33:00.211Z,18.58
2018-01-13T17:35:28.466Z,23.60
2018-01-13T17:37:59.579Z,23.00
2018-01-13T17:40:28.648Z,23.46
2018-01-13T17:42:58.878Z,18.06
2018-01-13T17:45:27.217Z,20.82
2018-01-13T17:47:56.526Z,23.10
2018-01-13T17:50:24.810Z,16.78
2018-01-13T17:52:52.352Z,19.70
2018-01-13T17:55:20.642Z,17.06
2018-01-13T17:58:02.658Z,24.22
2018-01-13T18:00:30.942Z,19.78
2018-01-13T18:03:02.620Z,20.46
2018-01-13T18:05:44.487Z,20.94
2018-01-13T18:08:12.781Z,20.90
2018-01-13T18:10:46.957Z,22.00
2018-01-13T18:13:15.240Z,26.22
2018-01-13T18:15:44.504Z,19.48
2018-01-13T18:18:12.787Z,21.70
2018-01-13T18:20:46.634Z,21.10
2018-01-13T18:23:14.918Z,24.32
2018-01-13T18:25:43.175Z,20.18
2018-01-13T18:28:11.474Z,17.64
2018-01-13T18:30:39.737Z,18.86
2018-01-13T18:33:08.002Z,20.72
2018-01-13T18:35:36.332Z,20.90
2018-01-13T18:38:04.632Z,19.72
2018-01-13T18:40:32.965Z,23.42
2018-01-13T18:43:01.274Z,20.46
2018-01-13T18:45:30.478Z,16.82
2018-01-13T18:47:59.532Z,26.30
2018-01-13T18:50:28.552Z,20.40
2018-01-13T18:52:56.853Z,22.78
2018-01-13T18:55:25.193Z,21.82
2018-01-13T18:57:53.458Z,22.68
2018-01-13T19:00:21.753Z,22.08
2018-01-13T19:02:50.062Z,19.28
2018-01-13T19:05:18.410Z,20.00
2018-01-13T19:07:46.717Z,25.44
2018-01-13T19:10:14.248Z,22.22
2018-01-13T19:12:42.626Z,19.50
2018-01-13T19:15:10.891Z,44.46
2018-01-13T19:17:39.162Z,19.64
2018-01-13T19:20:06.687Z,21.02
2018-01-13T19:22:34.994Z,22.70
2018-01-13T19:25:03.295Z,22.80
2018-01-13T19:27:31.624Z,22.54
2018-01-13T19:30:00.122Z,23.54
2018-01-13T19:32:29.114Z,22.72
2018-01-13T19:34:58.017Z,24.26
2018-01-13T19:37:26.329Z,24.14
2018-01-13T19:39:54.615Z,25.68
2018-01-13T19:42:22.912Z,22.20
2018-01-13T19:44:51.241Z,21.94
2018-01-13T19:47:19.535Z,24.56
2018-01-13T19:49:47.845Z,25.04
2018-01-13T19:52:16.099Z,19.76
2018-01-13T19:54:43.681Z,27.44
2018-01-13T19:57:11.986Z,23.26
2018-01-13T19:59:42.277Z,21.74
2018-01-13T20:02:10.534Z,20.04
2018-01-13T20:04:53.406Z,21.22
2018-01-13T20:07:21.697Z,20.06
2018-01-13T20:09:53.957Z,20.58
2018-01-13T20:12:22.250Z,17.74
2018-01-13T20:14:50.590Z,19.86
2018-01-13T20:17:18.971Z,22.18
2018-01-13T20:19:47.273Z,21.20
2018-01-13T20:22:15.548Z,21.88
2018-01-13T20:24:43.848Z,21.26
2018-01-13T20:27:18.025Z,19.64
2018-01-13T20:29:46.370Z,22.86
2018-01-13T20:32:15.593Z,23.78
2018-01-13T20:34:43.931Z,19.64
2018-01-13T20:37:35.579Z,20.60
2018-01-13T20:40:03.887Z,23.56
2018-01-13T20:42:37.749Z,18.12
2018-01-13T20:45:06.086Z,25.10
2018-01-13T20:47:35.310Z,18.46
2018-01-13T20:50:03.647Z,22.84
2018-01-13T20:52:32.001Z,20.60
2018-01-13T20:55:00.313Z,22.54
2018-01-13T20:57:29.038Z,22.12
2018-01-13T21:00:04.467Z,19.12
2018-01-13T21:02:32.754Z,20.10
2018-01-13T21:05:01.092Z,20.30
2018-01-13T21:07:29.974Z,23.50
2018-01-13T21:09:59.181Z,22.72
2018-01-13T21:12:28.134Z,31.60
2018-01-13T21:14:56.411Z,23.38
2018-01-13T21:17:24.757Z,24.38
2018-01-13T21:19:53.067Z,25.72
2018-01-13T21:22:21.408Z,24.92
2018-01-13T21:24:49.716Z,25.38
2018-01-13T21:27:18.052Z,23.40
2018-01-13T21:29:46.370Z,26.12
2018-01-13T21:32:14.700Z,26.42
2018-01-13T21:34:42.957Z,23.74
2018-01-13T21:37:11.293Z,26.52
2018-01-13T21:39:39.630Z,24.02
2018-01-13T21:42:07.937Z,27.78
2018-01-13T21:44:46.088Z,23.90
2018-01-13T21:47:14.346Z,27.40
2018-01-13T21:49:42.694Z,23.48
2018-01-13T21:52:10.988Z,25.22
2018-01-13T21:54:39.305Z,24.06
2018-01-13T21:57:07.625Z,23.92
2018-01-13T21:59:35.961Z,28.14
2018-01-13T22:02:14.280Z,28.00
2018-01-13T22:04:42.617Z,25.22
2018-01-13T22:07:10.931Z,26.58
2018-01-13T22:09:39.266Z,24.20
2018-01-13T22:12:07.534Z,22.46
2018-01-13T22:14:35.857Z,24.28
2018-01-13T22:17:23.417Z,24.90
2018-01-13T22:19:51.740Z,23.42
2018-01-13T22:22:30.209Z,30.30
2018-01-13T22:24:58.859Z,26.30
2018-01-13T22:27:34.188Z,30.22
2018-01-13T22:30:02.518Z,23.52
2018-01-13T22:32:30.864Z,28.88
2018-01-13T22:34:59.717Z,29.40
2018-01-13T22:37:28.668Z,26.16
2018-01-13T22:39:56.996Z,24.66
2018-01-13T22:42:25.302Z,28.58
2018-01-13T22:44:53.648Z,30.58
2018-01-13T22:47:21.953Z,23.80
2018-01-13T22:50:10.592Z,29.30
2018-01-13T22:52:38.909Z,20.90
2018-01-13T22:55:07.216Z,22.70
2018-01-13T22:57:35.547Z,25.88
2018-01-13T23:00:03.887Z,26.48
2018-01-13T23:02:32.147Z,27.38
2018-01-13T23:05:00.430Z,26.24
2018-01-13T23:07:29.648Z,24.92
2018-01-13T23:09:58.713Z,23.24
2018-01-13T23:12:28.712Z,27.38
2018-01-13T23:14:56.966Z,27.72
2018-01-13T23:17:25.260Z,32.12
2018-01-13T23:19:53.601Z,27.52
2018-01-13T23:22:21.899Z,29.86
2018-01-13T23:24:50.154Z,28.84
2018-01-13T23:27:22.365Z,25.80
2018-01-13T23:29:50.622Z,27.68
2018-01-13T23:32:18.952Z,26.16
2018-01-13T23:34:47.210Z,29.02
2018-01-13T23:37:15.638Z,28.84
2018-01-13T23:39:43.899Z,30.70
2018-01-13T23:42:12.193Z,30.88
2018-01-13T23:44:40.516Z,29.10
2018-01-13T23:47:08.842Z,26.46
2018-01-13T23:49:37.136Z,24.14
2018-01-13T23:52:05.418Z,24.60
2018-01-13T23:54:33.756Z,25.98
2018-01-13T23:57:02.050Z,25.06
2018-01-13T23:59:30.303Z,22.08
